Terminal Aerodrome Forecast
Issued by NWS

Home | Current Version | Previous Version | Text Only | Print | Product List | Glossary On
Versions: 1 2 3 4 5 6 7 8 9 10 11 12 13 14 15 16 17 18 19 20 21 22 23
000
FTUS44 KLZK 050300 AAB
TAFHRO
TAF AMD
KHRO 050335Z 0504/0524 34008KT 4SM -SN BR SCT015 OVC035
      TEMPO 0504/0508 2SM -SN BR OVC025
     FM050800 33010KT 5SM -SN BR OVC025
     FM051200 31005KT P6SM BKN030
     FM051800 35007KT P6SM OVC050=

USA.gov is the U.S. government's official web portal to all federal, state and local government web resources and services.